createdAt,value
2022-11-19T00:01:13.832Z,7.45
2022-11-19T00:03:41.552Z,8.48
2022-11-19T00:06:09.832Z,7.93
2022-11-19T00:08:36.873Z,7.43
2022-11-19T00:11:42.594Z,8.57
2022-11-19T00:14:12.428Z,9.60
2022-11-19T00:16:39.750Z,7.13
2022-11-19T00:19:06.790Z,6.10
2022-11-19T00:21:33.432Z,5.53
2022-11-19T00:24:00.209Z,6.40
2022-11-19T00:26:27.026Z,8.30
2022-11-19T00:28:55.378Z,7.50
2022-11-19T00:31:22.485Z,5.45
2022-11-19T00:33:50.589Z,5.85
2022-11-19T00:36:17.770Z,5.18
2022-11-19T00:38:44.413Z,5.28
2022-11-19T00:41:11.304Z,7.68
2022-11-19T00:43:47.804Z,7.13
2022-11-19T00:46:29.660Z,5.85
2022-11-19T00:48:58.308Z,6.07
2022-11-19T00:51:27.920Z,5.75
2022-11-19T00:53:55.164Z,6.28
2022-11-19T00:56:24.297Z,9.38
2022-11-19T00:58:51.555Z,7.60
2022-11-19T01:01:20.153Z,8.90
2022-11-19T01:03:46.938Z,7.80
2022-11-19T01:06:19.142Z,8.75
2022-11-19T01:08:47.791Z,8.77
2022-11-19T01:11:17.294Z,9.27
2022-11-19T01:13:44.045Z,8.73
2022-11-19T01:16:14.582Z,15.10
2022-11-19T01:18:42.944Z,10.73
2022-11-19T01:21:11.527Z,10.60
2022-11-19T01:23:39.615Z,9.07
2022-11-19T01:26:06.452Z,10.57
2022-11-19T01:28:33.801Z,10.43
2022-11-19T01:31:00.744Z,9.77
2022-11-19T01:33:27.845Z,10.57
2022-11-19T01:36:02.636Z,12.23
2022-11-19T01:38:30.302Z,10.35
2022-11-19T01:40:57.441Z,10.32
2022-11-19T01:43:52.130Z,9.63
2022-11-19T01:46:24.051Z,10.30
2022-11-19T01:48:55.272Z,16.13
2022-11-19T01:51:35.505Z,13.32
2022-11-19T01:54:10.995Z,13.85
2022-11-19T01:56:37.734Z,15.20
2022-11-19T01:59:11.117Z,12.07
2022-11-19T02:01:37.770Z,13.38
2022-11-19T02:04:07.023Z,12.30
2022-11-19T02:06:34.221Z,14.25
2022-11-19T02:09:00.852Z,12.95
2022-11-19T02:11:39.319Z,9.68
2022-11-19T02:14:21.745Z,10.25
2022-11-19T02:17:14.519Z,11.15
2022-11-19T02:20:20.254Z,15.02
2022-11-19T02:23:25.750Z,8.10
2022-11-19T02:26:04.630Z,11.35
2022-11-19T02:28:40.136Z,11.30
2022-11-19T02:31:24.153Z,7.28
2022-11-19T02:34:02.117Z,5.75
2022-11-19T02:36:40.933Z,8.30
2022-11-19T02:39:30.819Z,7.37
2022-11-19T02:42:05.229Z,5.72
2022-11-19T02:44:56.268Z,6.95
2022-11-19T02:47:28.905Z,5.20
2022-11-19T02:50:00.910Z,5.72
2022-11-19T02:52:28.590Z,4.45
2022-11-19T02:54:55.392Z,7.15
2022-11-19T02:57:22.039Z,5.53
2022-11-19T03:00:14.736Z,5.63
2022-11-19T03:03:11.388Z,5.72
2022-11-19T03:05:44.235Z,5.60
2022-11-19T03:08:11.133Z,5.07
2022-11-19T03:10:58.069Z,5.45
2022-11-19T03:13:47.794Z,4.75
2022-11-19T03:19:10.398Z,3.50
2022-11-19T03:21:38.862Z,5.30
2022-11-19T03:24:10.955Z,5.55
2022-11-19T03:26:42.720Z,3.72
2022-11-19T03:29:13.279Z,3.60
2022-11-19T03:31:46.783Z,2.83
2022-11-19T03:34:18.284Z,5.38
2022-11-19T03:36:48.108Z,5.10
2022-11-19T03:41:46.563Z,5.22
2022-11-19T03:44:19.740Z,4.45
2022-11-19T03:46:49.922Z,5.70
2022-11-19T03:49:21.837Z,6.45
2022-11-19T03:51:54.016Z,6.40
2022-11-19T03:54:20.802Z,5.97
2022-11-19T03:56:48.912Z,6.75
2022-11-19T03:59:16.760Z,7.72
2022-11-19T04:01:47.094Z,5.78
2022-11-19T04:04:37.173Z,6.47
2022-11-19T04:07:22.104Z,7.50
2022-11-19T04:09:49.452Z,5.80
2022-11-19T04:12:24.423Z,6.40
2022-11-19T04:14:51.420Z,5.40
2022-11-19T04:17:19.216Z,5.20
2022-11-19T04:19:46.772Z,6.65
2022-11-19T04:22:13.384Z,10.52
2022-11-19T04:24:40.058Z,8.00
2022-11-19T04:27:06.677Z,8.55
2022-11-19T04:29:33.379Z,7.43
2022-11-19T04:32:00.094Z,7.90
2022-11-19T04:34:26.812Z,8.77
2022-11-19T04:36:53.446Z,8.57
2022-11-19T04:39:20.350Z,10.40
2022-11-19T04:41:47.258Z,7.68
2022-11-19T04:44:13.843Z,7.43
2022-11-19T04:46:40.508Z,16.60
2022-11-19T04:49:07.160Z,7.00
2022-11-19T04:51:33.750Z,8.27
2022-11-19T04:54:00.422Z,9.75
2022-11-19T04:56:27.156Z,9.85
2022-11-19T04:58:53.804Z,7.85
2022-11-19T05:01:20.957Z,9.25
2022-11-19T05:03:48.514Z,7.88
2022-11-19T05:06:15.149Z,10.90
2022-11-19T05:08:42.006Z,8.98
2022-11-19T05:11:08.723Z,9.43
2022-11-19T05:13:35.450Z,7.22
2022-11-19T05:16:02.286Z,9.98
2022-11-19T05:18:28.972Z,7.47
2022-11-19T05:20:55.720Z,8.35
2022-11-19T05:23:22.408Z,12.38
2022-11-19T05:25:49.104Z,10.75
2022-11-19T05:28:15.804Z,10.48
2022-11-19T05:30:42.407Z,10.35
2022-11-19T05:33:09.208Z,12.35
2022-11-19T05:35:35.881Z,10.15
2022-11-19T05:38:02.585Z,10.75
2022-11-19T05:40:29.202Z,9.68
2022-11-19T05:42:55.779Z,10.38
2022-11-19T05:45:22.609Z,10.82
2022-11-19T05:47:54.688Z,9.70
2022-11-19T05:50:21.343Z,9.32
2022-11-19T05:52:48.045Z,10.20
2022-11-19T05:55:14.794Z,9.30
2022-11-19T05:57:41.423Z,8.02
2022-11-19T06:00:09.217Z,11.02
2022-11-19T06:02:35.865Z,11.35
2022-11-19T06:05:02.683Z,10.02
2022-11-19T06:07:29.387Z,11.60
2022-11-19T06:09:56.034Z,12.68
2022-11-19T06:12:22.939Z,12.13
2022-11-19T06:14:49.585Z,10.32
2022-11-19T06:17:16.292Z,11.82
2022-11-19T06:19:42.906Z,12.32
2022-11-19T06:22:09.965Z,11.85
2022-11-19T06:24:36.716Z,10.73
2022-11-19T06:27:03.466Z,15.82
2022-11-19T06:29:30.118Z,13.35
2022-11-19T06:31:56.828Z,12.65
2022-11-19T06:34:23.398Z,10.93
2022-11-19T06:36:50.865Z,12.48
2022-11-19T06:39:18.471Z,14.73
2022-11-19T06:41:45.447Z,11.40
2022-11-19T06:44:12.040Z,14.57
2022-11-19T06:46:38.827Z,16.27
2022-11-19T06:49:05.878Z,12.50
2022-11-19T06:51:32.977Z,11.20
2022-11-19T06:53:59.628Z,14.27
2022-11-19T06:56:26.270Z,14.05
2022-11-19T06:58:57.026Z,12.32
2022-11-19T07:01:23.689Z,13.93
2022-11-19T07:03:50.444Z,12.60
2022-11-19T07:06:17.065Z,15.10
2022-11-19T07:08:43.668Z,13.48
2022-11-19T07:11:25.768Z,14.80
2022-11-19T07:13:59.777Z,15.20
2022-11-19T07:16:29.957Z,15.55
2022-11-19T07:18:58.515Z,14.90
2022-11-19T07:21:25.286Z,14.82
2022-11-19T07:23:52.177Z,15.35
2022-11-19T07:26:18.862Z,13.45
2022-11-19T07:28:45.460Z,14.85
2022-11-19T07:31:12.185Z,15.10
2022-11-19T07:33:39.169Z,14.45
2022-11-19T07:36:07.935Z,14.40
2022-11-19T07:38:37.096Z,14.30
2022-11-19T07:41:24.763Z,15.23
2022-11-19T07:43:51.419Z,15.32
2022-11-19T07:46:18.160Z,13.00
2022-11-19T07:48:44.785Z,15.02
2022-11-19T07:51:11.633Z,12.88
2022-11-19T07:53:38.362Z,13.68
2022-11-19T07:56:05.293Z,11.98
2022-11-19T07:58:32.054Z,11.75
2022-11-19T08:00:58.682Z,10.18
2022-11-19T08:03:25.310Z,8.27
2022-11-19T08:05:51.945Z,9.75
2022-11-19T08:08:18.554Z,8.75
2022-11-19T08:10:45.247Z,9.18
2022-11-19T08:13:11.834Z,8.68
2022-11-19T08:15:38.443Z,6.93
2022-11-19T08:18:15.705Z,6.72
2022-11-19T08:20:43.921Z,5.60
2022-11-19T08:23:11.917Z,6.40
2022-11-19T08:25:39.193Z,7.45
2022-11-19T08:28:06.138Z,5.40
2022-11-19T08:30:33.813Z,4.40
2022-11-19T08:33:00.660Z,6.00
2022-11-19T08:35:27.547Z,6.28
2022-11-19T08:37:54.260Z,4.68
2022-11-19T08:40:20.960Z,4.55
2022-11-19T08:42:59.808Z,5.03
2022-11-19T08:45:27.334Z,5.07
2022-11-19T08:47:55.266Z,5.63
2022-11-19T08:50:22.647Z,4.22
2022-11-19T08:52:57.188Z,4.75
2022-11-19T08:55:24.864Z,6.63
2022-11-19T08:57:51.495Z,5.55
2022-11-19T09:00:20.101Z,4.88
2022-11-19T09:02:47.212Z,7.65
2022-11-19T09:05:14.788Z,7.32
2022-11-19T09:07:41.810Z,6.65
2022-11-19T09:10:09.806Z,7.72
2022-11-19T09:12:36.650Z,8.40
2022-11-19T09:15:04.413Z,8.38
2022-11-19T09:17:31.356Z,8.43
2022-11-19T09:19:58.019Z,8.30
2022-11-19T09:22:24.678Z,8.30
2022-11-19T09:24:51.414Z,9.63
2022-11-19T09:27:18.125Z,7.25
2022-11-19T09:29:44.755Z,10.30
2022-11-19T09:32:11.506Z,9.95
2022-11-19T09:34:40.630Z,11.15
2022-11-19T09:37:10.876Z,8.88
2022-11-19T09:39:38.244Z,11.40
2022-11-19T09:42:16.998Z,7.60
2022-11-19T09:45:02.178Z,9.50
2022-11-19T09:47:40.197Z,10.15
2022-11-19T09:50:19.488Z,8.40
2022-11-19T09:53:16.877Z,8.10
2022-11-19T09:55:46.648Z,9.85
2022-11-19T10:00:59.592Z,9.60
2022-11-19T10:03:32.825Z,9.27
2022-11-19T10:06:30.601Z,10.52
2022-11-19T10:09:19.238Z,10.55
2022-11-19T10:12:02.738Z,11.30
2022-11-19T10:15:10.900Z,13.10
2022-11-19T10:17:49.537Z,13.02
2022-11-19T10:20:28.457Z,11.30
2022-11-19T10:23:17.540Z,10.35
2022-11-19T10:25:47.190Z,13.05
2022-11-19T10:28:21.931Z,12.45
2022-11-19T10:30:50.975Z,14.05
2022-11-19T10:33:17.670Z,13.93
2022-11-19T10:35:51.628Z,15.68
2022-11-19T10:38:27.090Z,14.43
2022-11-19T10:41:02.563Z,19.13
2022-11-19T10:43:36.881Z,15.07
2022-11-19T10:46:06.176Z,17.17
2022-11-19T10:48:43.257Z,16.05
2022-11-19T10:51:14.010Z,16.30
2022-11-19T10:53:42.425Z,14.63
2022-11-19T10:56:19.567Z,16.52
2022-11-19T10:58:54.269Z,15.63
2022-11-19T11:01:34.046Z,15.35
2022-11-19T11:04:06.931Z,17.23
2022-11-19T11:06:54.666Z,15.98
2022-11-19T11:09:39.478Z,17.42
2022-11-19T11:12:41.156Z,18.73
2022-11-19T11:15:21.319Z,15.45
2022-11-19T11:17:59.541Z,15.73
2022-11-19T11:20:28.975Z,16.77
2022-11-19T11:23:33.231Z,19.75
2022-11-19T11:26:06.795Z,19.15
2022-11-19T11:28:34.383Z,16.45
2022-11-19T11:31:09.309Z,18.40
2022-11-19T11:33:39.291Z,18.73
2022-11-19T11:36:13.717Z,17.55
2022-11-19T11:38:43.617Z,17.63
2022-11-19T11:42:02.412Z,18.90
2022-11-19T11:44:22.785Z,18.85
2022-11-19T11:46:52.370Z,18.77
2022-11-19T11:49:28.211Z,19.30
2022-11-19T11:52:04.916Z,21.27
2022-11-19T11:54:31.670Z,19.45
2022-11-19T11:57:19.388Z,21.52
2022-11-19T11:59:46.313Z,20.45
2022-11-19T12:02:26.951Z,20.02
2022-11-19T12:04:55.655Z,22.42
2022-11-19T12:07:40.462Z,21.15
2022-11-19T12:10:26.117Z,21.75
2022-11-19T12:13:08.804Z,26.75
2022-11-19T12:15:47.567Z,22.27
2022-11-19T12:18:38.261Z,21.27
2022-11-19T12:21:17.007Z,22.33
2022-11-19T12:24:10.923Z,23.58
2022-11-19T12:27:19.799Z,23.15
2022-11-19T12:30:03.548Z,23.63
2022-11-19T12:32:39.680Z,25.27
2022-11-19T12:35:37.377Z,34.20
2022-11-19T12:38:25.506Z,23.35
2022-11-19T12:41:39.973Z,23.58
2022-11-19T12:44:34.460Z,24.73
2022-11-19T12:47:18.287Z,23.60
2022-11-19T12:49:44.951Z,24.02
2022-11-19T12:52:50.437Z,23.55
2022-11-19T12:55:59.430Z,27.52
2022-11-19T12:58:38.784Z,23.48
2022-11-19T13:01:13.655Z,25.92
2022-11-19T13:03:47.771Z,23.23
2022-11-19T13:06:22.322Z,28.02
2022-11-19T13:08:58.161Z,25.75
2022-11-19T13:11:36.556Z,26.75
2022-11-19T13:14:11.821Z,25.48
2022-11-19T13:16:41.243Z,28.75
2022-11-19T13:19:29.358Z,23.60
2022-11-19T13:22:07.395Z,27.55
2022-11-19T13:24:45.476Z,26.63
2022-11-19T13:27:23.011Z,28.95
2022-11-19T13:30:20.447Z,28.98
2022-11-19T13:33:11.712Z,29.20
2022-11-19T13:35:47.199Z,27.42
2022-11-19T13:38:22.698Z,30.13
2022-11-19T13:41:10.926Z,30.45
2022-11-19T13:43:56.169Z,28.17
2022-11-19T13:46:36.941Z,31.73
2022-11-19T13:49:13.898Z,32.22
2022-11-19T13:51:44.648Z,30.13
2022-11-19T13:54:25.520Z,34.90
2022-11-19T13:56:56.157Z,34.70
2022-11-19T13:59:30.090Z,31.40
2022-11-19T14:02:14.623Z,30.23
2022-11-19T14:05:26.131Z,33.58
2022-11-19T14:08:21.835Z,33.38
2022-11-19T14:11:24.413Z,35.28
2022-11-19T14:14:32.986Z,38.55
2022-11-19T14:17:32.313Z,36.50
2022-11-19T14:20:17.536Z,35.80
2022-11-19T14:23:14.288Z,44.47
2022-11-19T14:26:02.546Z,39.35
2022-11-19T14:28:49.954Z,36.72
2022-11-19T14:31:18.924Z,37.15
2022-11-19T14:33:48.319Z,36.05
2022-11-19T14:36:38.124Z,38.03
2022-11-19T14:39:12.549Z,40.42
2022-11-19T14:41:43.884Z,38.85
2022-11-19T14:44:32.705Z,33.63
2022-11-19T14:47:21.940Z,36.57
2022-11-19T14:49:50.566Z,37.60
2022-11-19T14:52:25.129Z,36.53
2022-11-19T14:55:20.176Z,45.45
2022-11-19T14:58:00.712Z,40.92
2022-11-19T15:00:41.334Z,38.45
2022-11-19T15:03:24.033Z,36.03
2022-11-19T15:05:51.147Z,37.70
2022-11-19T15:08:17.920Z,38.67
2022-11-19T15:11:05.422Z,41.30
2022-11-19T15:13:40.725Z,37.10
2022-11-19T15:16:16.901Z,36.97
2022-11-19T15:18:43.475Z,42.45
2022-11-19T15:21:40.290Z,41.08
2022-11-19T15:24:30.650Z,36.75
2022-11-19T15:27:33.953Z,36.72
2022-11-19T15:30:10.129Z,36.28
2022-11-19T15:33:01.202Z,38.45
2022-11-19T15:35:56.851Z,33.83
2022-11-19T15:38:23.507Z,36.35
2022-11-19T15:40:53.243Z,41.05
2022-11-19T15:46:09.648Z,41.10
2022-11-19T15:48:54.989Z,37.35
2022-11-19T15:51:22.032Z,35.15
2022-11-19T15:53:59.850Z,32.97
2022-11-19T15:56:31.891Z,33.90
2022-11-19T15:59:00.274Z,33.40
2022-11-19T16:01:27.259Z,35.45
2022-11-19T16:03:54.056Z,40.50
2022-11-19T16:06:27.180Z,34.20
2022-11-19T16:08:55.546Z,39.03
2022-11-19T16:11:43.796Z,32.40
2022-11-19T16:14:47.768Z,36.53
2022-11-19T16:17:33.441Z,41.45
2022-11-19T16:20:12.497Z,36.90
2022-11-19T16:22:50.086Z,36.65
2022-11-19T16:25:34.884Z,34.72
2022-11-19T16:28:05.615Z,38.13
2022-11-19T16:30:42.473Z,38.25
2022-11-19T16:33:16.307Z,35.53
2022-11-19T16:35:43.779Z,39.30
2022-11-19T16:41:03.779Z,41.05
2022-11-19T16:43:30.714Z,38.85
2022-11-19T16:45:58.162Z,36.65
2022-11-19T16:48:49.261Z,38.10
2022-11-19T16:51:36.815Z,39.15
2022-11-19T16:54:05.906Z,37.63
2022-11-19T16:56:58.999Z,34.53
2022-11-19T16:59:25.910Z,38.88
2022-11-19T17:01:59.892Z,37.33
2022-11-19T17:04:30.603Z,37.58
2022-11-19T17:06:58.935Z,38.08
2022-11-19T17:09:42.265Z,34.35
2022-11-19T17:12:27.424Z,37.55
2022-11-19T17:15:02.634Z,32.00
2022-11-19T17:17:34.330Z,37.92
2022-11-19T17:20:43.730Z,33.72
2022-11-19T17:23:18.332Z,32.20
2022-11-19T17:25:57.101Z,36.10
2022-11-19T17:28:37.996Z,35.57
2022-11-19T17:31:17.900Z,35.40
2022-11-19T17:33:54.766Z,35.80
2022-11-19T17:36:22.383Z,33.78
2022-11-19T17:38:49.652Z,36.22
2022-11-19T17:41:40.526Z,38.85
2022-11-19T17:44:33.550Z,34.28
2022-11-19T17:47:24.244Z,35.03
2022-11-19T17:49:51.884Z,35.55
2022-11-19T17:52:30.336Z,34.35
2022-11-19T17:55:16.802Z,31.52
2022-11-19T17:57:43.666Z,36.88
2022-11-19T18:00:11.066Z,36.17
2022-11-19T18:02:37.925Z,35.67
2022-11-19T18:05:15.102Z,33.22
2022-11-19T18:07:42.052Z,35.70
2022-11-19T18:10:09.403Z,35.80
2022-11-19T18:12:36.225Z,33.08
2022-11-19T18:15:03.348Z,35.47
2022-11-19T18:17:30.041Z,37.00
2022-11-19T18:19:56.832Z,35.28
2022-11-19T18:22:23.623Z,36.50
2022-11-19T18:24:51.789Z,38.42
2022-11-19T18:27:18.510Z,38.45
2022-11-19T18:29:45.257Z,36.80
2022-11-19T18:32:15.236Z,37.58
2022-11-19T18:34:42.259Z,37.40
2022-11-19T18:37:08.966Z,36.97
2022-11-19T18:39:35.599Z,43.40
2022-11-19T18:42:02.365Z,40.85
2022-11-19T18:44:34.868Z,35.75
2022-11-19T18:47:07.180Z,36.22
2022-11-19T18:49:34.942Z,43.47
2022-11-19T18:52:06.215Z,41.03
2022-11-19T18:54:33.955Z,34.75
2022-11-19T18:57:00.931Z,40.58
2022-11-19T18:59:27.649Z,42.80
2022-11-19T19:01:55.916Z,36.25
2022-11-19T19:04:23.174Z,34.55
2022-11-19T19:06:50.232Z,37.67
2022-11-19T19:09:20.190Z,32.08
2022-11-19T19:12:12.528Z,35.70
2022-11-19T19:14:39.930Z,37.50
2022-11-19T19:17:06.533Z,35.83
2022-11-19T19:19:33.242Z,40.33
2022-11-19T19:22:00.491Z,45.67
2022-11-19T19:24:27.335Z,40.10
2022-11-19T19:26:54.064Z,38.78
2022-11-19T19:29:20.910Z,38.10
2022-11-19T19:31:47.805Z,38.80
2022-11-19T19:34:14.604Z,34.88
2022-11-19T19:36:46.487Z,40.55
2022-11-19T19:39:16.959Z,312.92
2022-11-19T19:41:43.848Z,401.52
2022-11-19T19:44:10.948Z,78.65
2022-11-19T19:46:37.640Z,40.60
2022-11-19T19:49:04.353Z,41.95
2022-11-19T19:51:32.502Z,42.05
2022-11-19T19:53:59.419Z,38.03
2022-11-19T19:56:28.143Z,38.80
2022-11-19T19:58:55.617Z,41.33
2022-11-19T20:01:30.682Z,36.53
2022-11-19T20:04:06.131Z,37.40
2022-11-19T20:06:33.481Z,37.38
2022-11-19T20:09:03.210Z,39.15
2022-11-19T20:11:33.698Z,38.72
2022-11-19T20:14:00.398Z,37.03
2022-11-19T20:16:32.562Z,39.15
2022-11-19T20:19:00.536Z,34.45
2022-11-19T20:21:29.490Z,36.35
2022-11-19T20:23:57.428Z,38.33
2022-11-19T20:26:27.813Z,36.88
2022-11-19T20:29:05.579Z,41.22
2022-11-19T20:31:33.603Z,40.60
2022-11-19T20:34:02.034Z,53.38
2022-11-19T20:36:31.068Z,45.72
2022-11-19T20:38:58.791Z,38.85
2022-11-19T20:41:45.424Z,39.40
2022-11-19T20:44:20.082Z,35.00
2022-11-19T20:46:51.765Z,40.67
2022-11-19T20:49:20.881Z,34.45
2022-11-19T20:51:48.121Z,37.13
2022-11-19T20:54:15.258Z,40.35
2022-11-19T20:56:42.246Z,37.08
2022-11-19T20:59:09.773Z,33.65
2022-11-19T21:01:36.686Z,38.35
2022-11-19T21:04:03.865Z,35.58
2022-11-19T21:06:31.029Z,37.42
2022-11-19T21:08:57.750Z,34.47
2022-11-19T21:11:25.188Z,218.70
2022-11-19T21:13:51.909Z,87.57
2022-11-19T21:16:22.087Z,37.78
2022-11-19T21:18:49.296Z,36.70
2022-11-19T21:21:18.273Z,37.95
2022-11-19T21:23:45.492Z,39.05
2022-11-19T21:26:18.159Z,34.63
2022-11-19T21:28:49.115Z,36.88
2022-11-19T21:31:17.158Z,37.65
2022-11-19T21:33:43.767Z,41.80
2022-11-19T21:36:11.565Z,36.92
2022-11-19T21:38:38.383Z,39.38
2022-11-19T21:41:05.680Z,35.60
2022-11-19T21:43:32.825Z,35.33
2022-11-19T21:45:59.567Z,37.95
2022-11-19T21:48:27.029Z,37.55
2022-11-19T21:50:53.947Z,48.53
2022-11-19T21:53:20.917Z,40.45
2022-11-19T21:55:48.147Z,40.28
2022-11-19T21:58:15.812Z,95.43
2022-11-19T22:00:43.919Z,45.88
2022-11-19T22:03:10.716Z,37.00
2022-11-19T22:05:37.330Z,41.45
2022-11-19T22:08:04.118Z,35.05
2022-11-19T22:10:31.091Z,36.08
2022-11-19T22:12:58.773Z,43.90
2022-11-19T22:15:26.897Z,41.65
2022-11-19T22:17:53.823Z,46.33
2022-11-19T22:20:20.598Z,42.35
2022-11-19T22:22:47.414Z,44.83
2022-11-19T22:25:14.343Z,41.80
2022-11-19T22:27:41.835Z,41.15
2022-11-19T22:30:10.150Z,41.95
2022-11-19T22:32:37.114Z,39.63
2022-11-19T22:35:04.748Z,42.03
2022-11-19T22:37:31.993Z,42.47
2022-11-19T22:39:58.837Z,41.25
2022-11-19T22:42:25.573Z,44.63
2022-11-19T22:44:52.984Z,43.10
2022-11-19T22:47:19.815Z,40.28
2022-11-19T22:49:46.635Z,39.95
2022-11-19T22:52:15.567Z,47.88
2022-11-19T22:54:42.253Z,41.60
2022-11-19T22:57:09.742Z,43.72
2022-11-19T22:59:36.599Z,38.72
2022-11-19T23:02:03.521Z,41.88
2022-11-19T23:04:30.170Z,41.35
2022-11-19T23:06:57.045Z,45.72
2022-11-19T23:09:23.985Z,39.40
2022-11-19T23:12:09.504Z,46.33
2022-11-19T23:14:36.244Z,49.00
2022-11-19T23:17:02.868Z,48.80
2022-11-19T23:19:29.541Z,47.00
2022-11-19T23:21:56.237Z,49.83
2022-11-19T23:24:22.922Z,56.63
2022-11-19T23:26:49.736Z,49.20
2022-11-19T23:29:16.387Z,48.85
2022-11-19T23:31:43.125Z,57.88
2022-11-19T23:34:09.970Z,55.42
2022-11-19T23:36:39.798Z,48.88
2022-11-19T23:39:10.225Z,46.33
2022-11-19T23:41:37.030Z,50.85
2022-11-19T23:44:04.112Z,56.95
2022-11-19T23:46:35.818Z,55.80
2022-11-19T23:49:03.801Z,51.10
2022-11-19T23:51:35.385Z,51.85
2022-11-19T23:54:02.539Z,51.15
2022-11-19T23:56:31.975Z,52.33
2022-11-19T23:59:06.111Z,50.47
